| time (UTC) | temp F | wind direction | speed knots | gust knots | rain 1hr in | rain 24hr in | rain mn in | humidity % | barometer mb |
| 20260503224553 | 81 | 355 | 2.6 | 0.0 | 0.00 | 0.00 | 0.00 | 41 | 1009.7 |
| 20260503223052 | 81 | 17 | 2.6 | 0.0 | 0.00 | 0.00 | 0.00 | 41 | 1009.9 |
| 20260503221549 | 80 | 20 | 2.6 | 0.0 | 0.00 | 0.00 | 0.00 | 43 | 1010.2 |
| 20260503220052 | 80 | 19 | 3.5 | 0.0 | 0.00 | 0.00 | 0.00 | 42 | 1010.3 |
| 20260503214546 | 81 | 5 | 3.5 | 0.0 | 0.00 | 0.00 | 0.00 | 42 | 1010.4 |
| 20260503213052 | 81 | 9 | 1.7 | 0.0 | 0.00 | 0.00 | 0.00 | 43 | 1010.5 |
| 20260503211505 | 80 | 329 | 1.7 | 0.0 | 0.00 | 0.00 | 0.00 | 41 | 1010.6 |
| 20260503210027 | 80 | 22 | 1.7 | 0.0 | 0.00 | 0.00 | 0.00 | 41 | 1010.8 |
| 20260503204525 | 80 | 22 | 1.7 | 0.0 | 0.00 | 0.00 | 0.00 | 41 | 1011.0 |
| 20260503203029 | 79 | 360 | 1.7 | 0.0 | 0.00 | 0.00 | 0.00 | 40 | 1011.2 |
| 20260503201519 | 78 | 9 | 1.7 | 0.0 | 0.00 | 0.00 | 0.00 | 44 | 1011.3 |
| 20260503200015 | 77 | 33 | 1.7 | 0.0 | 0.00 | 0.00 | 0.00 | 46 | 1011.5 |
| 20260503194511 | 76 | 348 | 1.7 | 0.0 | 0.00 | 0.00 | 0.00 | 45 | 1011.7 |
| 20260503193011 | 76 | 323 | 2.6 | 0.0 | 0.00 | 0.00 | 0.00 | 47 | 1012.0 |
| 20260503191513 | 75 | 321 | 2.6 | 0.0 | 0.00 | 0.00 | 0.00 | 46 | 1012.1 |
| 20260503190003 | 74 | 5 | 2.6 | 0.0 | 0.00 | 0.00 | 0.00 | 46 | 1012.4 |
| 20260503184610 | 73 | 36 | 2.6 | 0.0 | 0.00 | 0.00 | 0.00 | 49 | 1012.5 |
| 20260503183109 | 73 | 16 | 2.6 | 0.0 | 0.00 | 0.00 | 0.00 | 50 | 1012.7 |
| 20260503181607 | 72 | 5 | 1.7 | 0.0 | 0.00 | 0.00 | 0.00 | 53 | 1012.7 |
| 20260503180049 | 71 | 5 | 2.6 | 0.0 | 0.00 | 0.00 | 0.00 | 55 | 1012.7 |
| 20260503174545 | 69 | 321 | 1.7 | 0.0 | 0.00 | 0.00 | 0.00 | 58 | 1012.9 |
| 20260503173045 | 68 | 5 | 0.0 | 0.0 | 0.00 | 0.00 | 0.00 | 62 | 1013.0 |
| 20260503171537 | 66 | 5 | 0.9 | 0.0 | 0.00 | 0.00 | 0.00 | 64 | 1013.1 |
| 20260503081604 | 58 | 286 | 0.0 | 0.0 | 0.00 | 0.00 | 0.00 | 72 | 1013.6 |
| 20260503071531 | 59 | 286 | 0.0 | 0.0 | 0.00 | 0.00 | 0.00 | 68 | 1013.5 |
| 20260503054529 | 61 | 286 | 0.0 | 0.0 | 0.00 | 0.00 | 0.00 | 62 | 1013.4 |
| 20260503053028 | 62 | 286 | 0.0 | 0.0 | 0.00 | 0.00 | 0.00 | 61 | 1013.4 |
| 20260503051528 | 62 | 286 | 0.0 | 0.0 | 0.00 | 0.00 | 0.00 | 60 | 1013.5 |
| 20260503050035 | 63 | 286 | 0.0 | 0.0 | 0.00 | 0.00 | 0.00 | 58 | 1013.4 |
| 20260503044528 | 63 | 286 | 0.0 | 0.0 | 0.00 | 0.00 | 0.00 | 57 | 1013.3 |
| 20260503043027 | 64 | 286 | 0.0 | 0.0 | 0.00 | 0.00 | 0.00 | 56 | 1013.2 |
| 20260503041526 | 65 | 286 | 0.0 | 0.0 | 0.00 | 0.00 | 0.00 | 57 | 1013.0 |
| 20260503040034 | 65 | 286 | 0.0 | 0.0 | 0.00 | 0.00 | 0.00 | 55 | 1012.9 |
| 20260503034535 | 66 | 286 | 0.0 | 0.0 | 0.00 | 0.00 | 0.00 | 55 | 1012.6 |
| 20260503033029 | 67 | 286 | 0.0 | 0.0 | 0.00 | 0.00 | 0.00 | 53 | 1012.3 |
| 20260503031524 | 68 | 331 | 0.0 | 0.0 | 0.00 | 0.00 | 0.00 | 52 | 1012.3 |
| 20260503030024 | 69 | 331 | 0.0 | 0.0 | 0.00 | 0.00 | 0.00 | 52 | 1012.1 |
| 20260503024523 | 70 | 315 | 0.0 | 0.0 | 0.00 | 0.00 | 0.00 | 51 | 1012.1 |
| 20260503023024 | 70 | 351 | 0.9 | 0.0 | 0.00 | 0.00 | 0.00 | 49 | 1012.0 |
| 20260503021522 | 71 | 26 | 0.9 | 0.0 | 0.00 | 0.00 | 0.00 | 51 | 1011.9 |
| 20260503020022 | 72 | 5 | 1.7 | 0.0 | 0.00 | 0.00 | 0.00 | 50 | 1011.9 |
| 20260503014536 | 72 | 335 | 1.7 | 0.0 | 0.00 | 0.00 | 0.00 | 51 | 1012.0 |
| 20260503013025 | 73 | 360 | 2.6 | 0.0 | 0.00 | 0.00 | 0.00 | 51 | 1012.0 |
| 20260503011520 | 73 | 342 | 2.6 | 0.0 | 0.00 | 0.00 | 0.00 | 51 | 1012.0 |
| 20260503010019 | 74 | 324 | 1.7 | 0.0 | 0.00 | 0.00 | 0.00 | 53 | 1012.0 |
| 20260503004517 | 74 | 355 | 1.7 | 0.0 | 0.00 | 0.00 | 0.00 | 53 | 1012.1 |
| 20260503003016 | 75 | 360 | 1.7 | 0.0 | 0.00 | 0.00 | 0.00 | 52 | 1012.1 |
| 20260503001516 | 75 | 360 | 1.7 | 0.0 | 0.00 | 0.00 | 0.00 | 52 | 1012.2 |
| 20260503000016 | 75 | 355 | 0.9 | 0.0 | 0.00 | 0.00 | 0.00 | 51 | 1012.2 |
| 20260502234514 | 74 | 5 | 1.7 | 0.0 | 0.00 | 0.00 | 0.00 | 52 | 1012.3 |
| 20260502233010 | 75 | 355 | 1.7 | 0.0 | 0.00 | 0.00 | 0.00 | 51 | 1012.6 |
| 20260502231508 | 75 | 17 | 1.7 | 0.0 | 0.00 | 0.00 | 0.00 | 51 | 1012.9 |
| 20260502230009 | 75 | 44 | 2.6 | 0.0 | 0.00 | 0.00 | 0.00 | 48 | 1013.1 |